Time;durP1;ratioP1;P1;durP2;ratioP2;P2;SDS_P1;SDS_P2;PMS_P1;PMS_P2;Temp;Humidity;BMP_temperature;BMP_pressure;BME280_temperature;BME280_humidity;BME280_pressure;Samples;Min_cycle;Max_cycle;Signal;HPM_P1;HPM_P2
2023/06/30 00:02:12;;;;;;;7.15;1.60;;;16.90;94.40;;;;;;4994551;28;20030;-75
2023/06/30 00:04:38;;;;;;;5.97;2.03;;;16.90;94.40;;;;;;4993435;28;20102;-76
2023/06/30 00:07:05;;;;;;;6.18;2.10;;;16.80;94.50;;;;;;4993360;28;20073;-76
2023/06/30 00:09:31;;;;;;;9.65;2.63;;;16.80;94.50;;;;;;4993282;28;20049;-75
2023/06/30 00:11:56;;;;;;;5.47;1.92;;;16.80;94.60;;;;;;4993470;28;20489;-75
2023/06/30 00:14:22;;;;;;;8.98;2.20;;;16.70;94.60;;;;;;4994410;28;20570;-76
2023/06/30 00:16:49;;;;;;;7.57;2.00;;;16.70;94.70;;;;;;4993196;28;20030;-76
2023/06/30 00:19:15;;;;;;;7.47;1.80;;;16.70;94.70;;;;;;4993128;28;20031;-75
2023/06/30 00:21:41;;;;;;;7.35;2.00;;;16.60;94.50;;;;;;4992945;28;20081;-76
2023/06/30 00:24:13;;;;;;;6.90;2.05;;;16.60;94.50;;;;;;4994512;28;20034;-77
2023/06/30 00:26:39;;;;;;;13.13;2.38;;;16.60;94.30;;;;;;4994366;28;20122;-76
2023/06/30 00:29:05;;;;;;;7.28;2.30;;;16.50;94.20;;;;;;4994430;28;20031;-76
2023/06/30 00:31:31;;;;;;;7.13;2.08;;;16.50;94.20;;;;;;4994079;28;20030;-76
2023/06/30 00:33:57;;;;;;;10.40;2.50;;;16.40;94.20;;;;;;4993129;28;20033;-76
2023/06/30 00:36:23;;;;;;;8.85;1.85;;;16.40;94.20;;;;;;4992748;28;20034;-75
2023/06/30 00:38:51;;;;;;;7.78;2.13;;;16.30;94.20;;;;;;4992543;28;20015;-75
2023/06/30 00:41:20;;;;;;;7.47;2.38;;;16.30;94.20;;;;;;4992289;28;20019;-75
2023/06/30 00:43:45;;;;;;;10.30;2.00;;;16.20;94.20;;;;;;4992699;28;20036;-76
2023/06/30 00:46:14;;;;;;;9.93;2.72;;;16.20;94.20;;;;;;4994241;28;20105;-76
2023/06/30 00:48:40;;;;;;;9.38;2.25;;;16.20;94.20;;;;;;4994201;28;20038;-75
2023/06/30 00:51:05;;;;;;;5.75;2.00;;;16.10;94.20;;;;;;4993967;28;20100;-75
2023/06/30 00:53:31;;;;;;;8.45;2.50;;;16.10;94.30;;;;;;4992851;28;20042;-75
2023/06/30 00:55:57;;;;;;;14.15;3.03;;;16.00;94.20;;;;;;4993869;28;20041;-75
2023/06/30 00:58:23;;;;;;;8.55;2.00;;;16.00;94.30;;;;;;4993935;28;20031;-75
2023/06/30 01:00:54;;;;;;;6.80;1.73;;;16.00;94.40;;;;;;4993828;28;20105;-75
2023/06/30 01:03:27;;;;;;;12.48;3.10;;;15.90;94.40;;;;;;4993872;28;20105;-76
2023/06/30 01:06:30;;;;;;;7.97;2.28;;;15.90;94.50;;;;;;4993773;28;20018;-75
2023/06/30 01:09:02;;;;;;;7.97;2.42;;;15.90;94.60;;;;;;4993781;28;20018;-75
2023/06/30 01:11:28;;;;;;;10.90;3.13;;;15.80;94.70;;;;;;4993847;28;20073;-75
2023/06/30 01:13:57;;;;;;;8.65;3.10;;;15.80;94.80;;;;;;4992661;28;20049;-76
2023/06/30 01:16:26;;;;;;;9.95;3.05;;;15.80;94.90;;;;;;4992368;28;20467;-75
2023/06/30 01:18:55;;;;;;;11.90;3.17;;;15.70;95.00;;;;;;4993847;28;20497;-75
2023/06/30 01:21:22;;;;;;;10.77;3.05;;;15.60;95.10;;;;;;4992422;28;20376;-75
2023/06/30 01:24:04;;;;;;;9.60;3.30;;;15.60;95.20;;;;;;4992508;28;20106;-75
2023/06/30 01:26:34;;;;;;;7.95;3.17;;;15.60;95.30;;;;;;4993537;28;20022;-75
2023/06/30 01:29:03;;;;;;;10.38;3.00;;;15.50;95.60;;;;;;4993649;28;20037;-75
2023/06/30 01:31:31;;;;;;;10.52;3.13;;;15.40;95.60;;;;;;4992483;28;20137;-75
2023/06/30 01:33:59;;;;;;;9.70;2.80;;;15.40;95.70;;;;;;4993625;28;20475;-75
2023/06/30 01:36:25;;;;;;;11.60;2.83;;;15.40;96.00;;;;;;4992354;28;20038;-75
2023/06/30 01:38:51;;;;;;;8.90;3.17;;;15.40;95.70;;;;;;4993585;28;20129;-74
2023/06/30 01:41:17;;;;;;;9.45;3.17;;;15.30;95.80;;;;;;4976162;28;20478;-75
2023/06/30 01:43:43;;;;;;;10.13;3.35;;;15.30;95.90;;;;;;4993437;28;20109;-75
2023/06/30 01:46:09;;;;;;;11.13;3.80;;;15.30;96.00;;;;;;4992183;28;20368;-75
2023/06/30 01:48:35;;;;;;;16.08;3.40;;;15.20;95.90;;;;;;4992386;28;20084;-75
2023/06/30 01:51:01;;;;;;;7.72;2.92;;;15.20;95.90;;;;;;4993147;28;20034;-75
2023/06/30 01:53:27;;;;;;;9.13;3.58;;;15.20;95.90;;;;;;4995611;28;20418;-74
2023/06/30 01:55:55;;;;;;;8.13;3.20;;;15.20;96.00;;;;;;4979465;28;20031;-75
2023/06/30 01:58:21;;;;;;;14.02;3.38;;;15.10;96.20;;;;;;4996824;28;20097;-74
2023/06/30 02:00:47;;;;;;;15.57;3.28;;;15.10;96.00;;;;;;4995948;28;20379;-75
2023/06/30 02:03:13;;;;;;;10.43;2.83;;;15.10;96.10;;;;;;4996796;28;20030;-75
2023/06/30 02:05:38;;;;;;;11.65;3.78;;;15.10;96.20;;;;;;4979526;28;20049;-75
2023/06/30 02:08:04;;;;;;;8.80;2.90;;;15.10;96.20;;;;;;4995521;28;20109;-75
2023/06/30 02:10:31;;;;;;;8.65;3.13;;;15.00;96.20;;;;;;4996665;28;20391;-75
2023/06/30 02:12:57;;;;;;;12.73;3.30;;;15.00;96.30;;;;;;4979469;28;20506;-75
2023/06/30 02:15:22;;;;;;;11.13;3.63;;;14.90;96.30;;;;;;4996514;28;20037;-75
2023/06/30 02:17:48;;;;;;;13.88;3.47;;;14.90;96.30;;;;;;4997045;28;20105;-74
2023/06/30 02:20:14;;;;;;;9.43;3.38;;;14.90;96.30;;;;;;4996491;28;20034;-74
2023/06/30 02:22:40;;;;;;;10.05;3.05;;;14.80;96.30;;;;;;4995137;28;20033;-75
2023/06/30 02:25:06;;;;;;;14.25;3.78;;;14.80;96.40;;;;;;4996988;28;20053;-73
2023/06/30 02:27:31;;;;;;;14.05;3.15;;;14.70;96.30;;;;;;5005793;28;20026;-74
2023/06/30 02:30:03;;;;;;;10.88;3.40;;;14.70;96.40;;;;;;5015631;28;20398;-75
2023/06/30 02:32:29;;;;;;;12.35;3.53;;;14.60;96.40;;;;;;5014736;28;20037;-75
2023/06/30 02:34:54;;;;;;;7.53;2.67;;;14.60;96.40;;;;;;5015957;28;20044;-80
2023/06/30 02:37:20;;;;;;;7.13;2.63;;;14.60;96.50;;;;;;5014573;28;20038;-81
2023/06/30 02:39:45;;;;;;;10.38;3.20;;;14.60;96.60;;;;;;5015760;28;20058;-80
2023/06/30 02:42:11;;;;;;;13.20;3.30;;;14.50;96.60;;;;;;5016018;28;20465;-80
2023/06/30 02:44:37;;;;;;;11.73;3.15;;;14.50;96.70;;;;;;4998026;28;20026;-80
2023/06/30 02:47:03;;;;;;;10.23;3.30;;;14.40;96.70;;;;;;5014086;28;20058;-80
2023/06/30 02:49:28;;;;;;;8.52;3.00;;;14.40;96.80;;;;;;5014289;28;20478;-80
2023/06/30 02:51:54;;;;;;;9.23;2.38;;;14.40;96.80;;;;;;5015483;28;20041;-81
2023/06/30 02:54:20;;;;;;;7.45;2.70;;;14.30;96.80;;;;;;4997677;28;20124;-80
2023/06/30 02:56:45;;;;;;;9.25;2.50;;;14.30;96.80;;;;;;5014133;28;20041;-81
2023/06/30 02:59:11;;;;;;;10.73;2.95;;;14.30;96.90;;;;;;5015357;28;20482;-80
2023/06/30 03:01:36;;;;;;;11.57;2.85;;;14.20;96.90;;;;;;5015467;28;20038;-81
2023/06/30 03:04:03;;;;;;;8.82;3.25;;;14.20;96.90;;;;;;5014332;28;20105;-81
2023/06/30 03:06:29;;;;;;;9.52;2.80;;;14.20;96.90;;;;;;4997923;28;20501;-81
2023/06/30 03:08:55;;;;;;;9.40;2.40;;;14.20;97.00;;;;;;5010103;28;20081;-80
2023/06/30 03:11:21;;;;;;;13.88;3.42;;;14.20;97.00;;;;;;4994240;28;20030;-80
2023/06/30 03:13:46;;;;;;;10.82;2.72;;;14.10;97.00;;;;;;4993934;28;20030;-80
2023/06/30 03:16:12;;;;;;;9.07;2.65;;;14.10;97.10;;;;;;4994285;28;20042;-80
2023/06/30 03:18:38;;;;;;;7.57;3.13;;;14.10;97.10;;;;;;4994295;28;20427;-80
2023/06/30 03:21:03;;;;;;;6.18;2.60;;;14.10;97.20;;;;;;4994389;28;20109;-80
2023/06/30 03:23:29;;;;;;;7.30;2.03;;;14.00;97.20;;;;;;4994401;28;20110;-80
2023/06/30 03:25:54;;;;;;;8.60;2.00;;;14.00;97.30;;;;;;4994067;28;20056;-80
2023/06/30 03:28:20;;;;;;;6.80;2.08;;;13.90;97.30;;;;;;4993931;28;20041;-80
2023/06/30 03:30:46;;;;;;;8.70;2.45;;;13.90;97.40;;;;;;4994087;28;20035;-80
2023/06/30 03:33:12;;;;;;;11.05;2.53;;;13.90;97.40;;;;;;4995171;28;20058;-80
2023/06/30 03:35:37;;;;;;;10.80;2.83;;;13.90;97.50;;;;;;4993790;28;20026;-81
2023/06/30 03:38:03;;;;;;;6.05;2.17;;;13.90;97.60;;;;;;4995015;28;20038;-81
2023/06/30 03:40:29;;;;;;;9.10;2.20;;;13.90;97.70;;;;;;4993773;28;20493;-80
2023/06/30 03:42:54;;;;;;;7.90;2.47;;;13.90;97.70;;;;;;4993850;28;20030;-81
2023/06/30 03:45:20;;;;;;;8.45;2.47;;;13.80;98.00;;;;;;4993661;28;20117;-80
2023/06/30 03:47:47;;;;;;;9.05;2.65;;;13.80;97.80;;;;;;4994805;28;20086;-80
2023/06/30 03:50:12;;;;;;;7.07;2.33;;;13.80;97.90;;;;;;4994852;28;20033;-79
2023/06/30 03:52:38;;;;;;;8.13;3.05;;;13.80;97.90;;;;;;4994680;28;20039;-80
2023/06/30 03:55:04;;;;;;;10.52;2.67;;;13.80;98.00;;;;;;4994735;28;20034;-74
2023/06/30 03:57:30;;;;;;;7.90;2.45;;;13.80;98.00;;;;;;4994874;28;20080;-74
2023/06/30 03:59:55;;;;;;;8.90;2.72;;;13.70;98.00;;;;;;4993788;28;20076;-74
2023/06/30 04:02:21;;;;;;;9.38;2.42;;;13.70;98.10;;;;;;4977225;28;20117;-74
2023/06/30 04:04:46;;;;;;;6.47;2.72;;;13.70;98.20;;;;;;4994472;28;20114;-74
2023/06/30 04:07:12;;;;;;;7.72;2.20;;;13.70;98.20;;;;;;4993389;28;20037;-74
2023/06/30 04:09:38;;;;;;;11.57;2.45;;;13.70;98.30;;;;;;4993202;28;20038;-74
2023/06/30 04:12:04;;;;;;;8.82;2.72;;;13.70;98.40;;;;;;4994875;28;20398;-75
2023/06/30 04:14:30;;;;;;;8.52;2.22;;;13.70;98.40;;;;;;4992940;28;20046;-75
2023/06/30 04:16:55;;;;;;;7.75;2.72;;;13.70;98.50;;;;;;4976799;28;20501;-76
2023/06/30 04:19:21;;;;;;;7.72;2.75;;;13.70;98.60;;;;;;4993151;28;20031;-75
2023/06/30 04:21:47;;;;;;;8.57;2.63;;;13.70;98.70;;;;;;4993336;28;20027;-75
2023/06/30 04:24:13;;;;;;;10.48;3.33;;;13.80;98.80;;;;;;4993026;28;20030;-76
2023/06/30 04:26:38;;;;;;;9.07;2.40;;;13.70;98.70;;;;;;4993549;28;20096;-74
2023/06/30 04:29:04;;;;;;;9.02;2.90;;;13.70;98.80;;;;;;4994200;28;20076;-76
2023/06/30 04:31:30;;;;;;;5.78;2.38;;;13.70;98.80;;;;;;5006634;28;20383;-75
2023/06/30 04:33:55;;;;;;;11.30;2.85;;;13.70;98.90;;;;;;5012488;28;20048;-74
2023/06/30 04:36:21;;;;;;;8.73;2.65;;;13.70;98.90;;;;;;4995905;28;20123;-74
2023/06/30 04:38:48;;;;;;;6.82;2.08;;;13.70;99.00;;;;;;5012245;28;20109;-74
2023/06/30 04:41:14;;;;;;;9.10;2.50;;;13.70;99.00;;;;;;4996451;28;20030;-74
2023/06/30 04:43:40;;;;;;;7.78;2.03;;;13.70;99.10;;;;;;5013907;28;20454;-80
2023/06/30 04:46:06;;;;;;;7.85;2.13;;;13.70;99.10;;;;;;4995992;28;20497;-81
2023/06/30 04:48:33;;;;;;;7.15;2.72;;;13.80;99.40;;;;;;4995849;28;20065;-81
2023/06/30 04:50:59;;;;;;;7.20;2.90;;;13.80;99.20;;;;;;5013552;28;20109;-82
2023/06/30 04:53:25;;;;;;;10.00;2.95;;;13.80;99.50;;;;;;5012424;28;20114;-82
2023/06/30 04:55:50;;;;;;;9.43;2.63;;;13.80;99.30;;;;;;5013694;28;20026;-81
2023/06/30 04:58:17;;;;;;;8.80;2.65;;;13.80;99.30;;;;;;5012476;28;20037;-82
2023/06/30 05:00:43;;;;;;;4.90;1.90;;;13.90;99.40;;;;;;5013419;28;20439;-81
2023/06/30 05:03:09;;;;;;;6.28;2.45;;;13.90;99.40;;;;;;5013374;28;20026;-81
2023/06/30 05:05:35;;;;;;;6.88;2.25;;;13.90;99.40;;;;;;5013406;28;20065;-82
2023/06/30 05:08:00;;;;;;;7.35;2.10;;;14.00;99.40;;;;;;5016900;28;20045;-82
2023/06/30 05:10:26;;;;;;;7.68;2.78;;;14.00;99.30;;;;;;5024380;28;20160;-82
2023/06/30 05:12:52;;;;;;;5.07;1.92;;;14.10;99.40;;;;;;5026564;28;20044;-80
2023/06/30 05:15:17;;;;;;;8.57;2.55;;;14.10;99.40;;;;;;5033152;28;20029;-82
2023/06/30 05:17:43;;;;;;;8.25;2.28;;;14.10;99.40;;;;;;5026381;28;20041;-82
2023/06/30 05:20:09;;;;;;;10.13;2.30;;;14.10;99.40;;;;;;5020095;28;20434;-81
2023/06/30 05:22:35;;;;;;;7.63;1.88;;;14.20;99.40;;;;;;4995821;28;20125;-82
2023/06/30 05:25:02;;;;;;;9.18;2.15;;;14.30;99.40;;;;;;4992235;28;20058;-81
2023/06/30 05:27:27;;;;;;;6.18;1.95;;;14.30;99.20;;;;;;4996914;28;20041;-82
2023/06/30 05:29:53;;;;;;;5.78;1.70;;;14.30;99.10;;;;;;4996560;28;20038;-81
2023/06/30 05:32:20;;;;;;;9.82;2.30;;;14.30;98.90;;;;;;5011075;28;20107;-74
2023/06/30 05:34:48;;;;;;;4.40;1.38;;;14.40;98.90;;;;;;5023769;28;20049;-74
2023/06/30 05:37:14;;;;;;;7.80;1.77;;;14.40;98.80;;;;;;5016936;28;20064;-75
2023/06/30 05:39:39;;;;;;;9.35;1.90;;;14.40;98.80;;;;;;5016712;28;20030;-76
2023/06/30 05:42:05;;;;;;;6.68;1.88;;;14.50;98.80;;;;;;5022246;28;20051;-75
2023/06/30 05:44:31;;;;;;;5.18;1.75;;;14.50;98.70;;;;;;5026400;28;20435;-74
2023/06/30 05:46:56;;;;;;;6.40;1.75;;;14.50;98.60;;;;;;5034523;28;20107;-75
2023/06/30 05:49:22;;;;;;;6.10;1.63;;;14.60;98.60;;;;;;5035749;28;20022;-75
2023/06/30 05:51:48;;;;;;;5.88;1.75;;;14.60;98.70;;;;;;5023582;28;20381;-76
2023/06/30 05:54:14;;;;;;;5.38;1.48;;;14.60;98.70;;;;;;5018801;28;20030;-76
2023/06/30 05:56:40;;;;;;;7.65;2.10;;;14.70;98.70;;;;;;5027110;28;20109;-76
2023/06/30 05:59:09;;;;;;;7.13;1.58;;;14.80;98.60;;;;;;5020416;28;20116;-75
2023/06/30 06:01:38;;;;;;;6.88;1.83;;;14.80;98.50;;;;;;5009693;28;20021;-76
2023/06/30 06:04:04;;;;;;;5.60;1.65;;;14.80;98.50;;;;;;5020384;28;20018;-74
2023/06/30 06:06:30;;;;;;;6.05;1.35;;;14.90;98.40;;;;;;5006714;28;20083;-75
2023/06/30 06:08:55;;;;;;;5.68;1.75;;;15.00;98.30;;;;;;5013836;28;20033;-76
2023/06/30 06:11:21;;;;;;;6.60;1.63;;;15.00;98.20;;;;;;5018304;28;20136;-75
2023/06/30 06:13:46;;;;;;;7.25;1.98;;;15.10;98.20;;;;;;5017994;28;20037;-75
2023/06/30 06:16:12;;;;;;;4.57;1.60;;;15.10;98.10;;;;;;5017952;28;20053;-75
2023/06/30 06:18:38;;;;;;;4.90;1.38;;;15.10;97.80;;;;;;5017863;28;20478;-75
2023/06/30 06:21:04;;;;;;;5.63;1.38;;;15.20;97.70;;;;;;5034381;28;20030;-75
2023/06/30 06:23:30;;;;;;;5.10;1.38;;;15.20;97.60;;;;;;5034465;28;20021;-75
2023/06/30 06:25:55;;;;;;;6.03;1.55;;;15.30;97.50;;;;;;5035541;28;20496;-76
2023/06/30 06:28:21;;;;;;;5.78;1.48;;;15.30;97.20;;;;;;5035725;28;20044;-76
2023/06/30 06:30:48;;;;;;;8.10;1.98;;;15.40;96.90;;;;;;5001603;28;20025;-75
2023/06/30 06:33:14;;;;;;;6.03;1.42;;;15.40;96.80;;;;;;5034255;28;20551;-74
2023/06/30 06:35:39;;;;;;;7.68;1.77;;;15.50;96.50;;;;;;5035821;28;20025;-74
2023/06/30 06:38:05;;;;;;;7.95;1.70;;;15.50;96.20;;;;;;4982257;28;20084;-75
2023/06/30 06:40:32;;;;;;;7.70;1.50;;;15.60;96.30;;;;;;4994882;28;20077;-76
2023/06/30 06:42:58;;;;;;;4.75;1.45;;;15.60;95.90;;;;;;4994367;28;20102;-76
2023/06/30 06:45:23;;;;;;;6.97;1.90;;;15.70;95.60;;;;;;5000377;28;20130;-75
2023/06/30 06:48:24;;;;;;;6.85;1.50;;;15.70;95.50;;;;;;5035248;28;20045;-75
2023/06/30 06:50:53;;;;;;;6.50;1.05;;;15.70;95.30;;;;;;5033912;28;20033;-76
2023/06/30 06:53:23;;;;;;;5.63;1.52;;;15.80;95.10;;;;;;5033987;28;20037;-75
2023/06/30 06:55:50;;;;;;;6.38;1.23;;;15.90;94.90;;;;;;5035067;28;20109;-76
2023/06/30 06:58:17;;;;;;;7.13;1.10;;;15.90;94.30;;;;;;5034290;28;20037;-76
2023/06/30 07:00:45;;;;;;;6.57;1.60;;;15.90;94.20;;;;;;5034920;28;20037;-75
2023/06/30 07:03:11;;;;;;;5.57;1.08;;;16.00;94.20;;;;;;5026923;28;20515;-75
2023/06/30 07:05:39;;;;;;;5.78;0.93;;;16.10;94.30;;;;;;5025494;28;20033;-75
2023/06/30 07:08:05;;;;;;;6.65;0.90;;;16.10;94.10;;;;;;5017509;28;20034;-83
2023/06/30 07:10:30;;;;;;;7.75;1.40;;;16.20;93.80;;;;;;5014208;28;20489;-82
2023/06/30 07:12:56;;;;;;;2.67;0.70;;;16.30;93.50;;;;;;4997011;28;20132;-83
2023/06/30 07:15:22;;;;;;;9.60;1.08;;;16.30;93.30;;;;;;5015386;28;20029;-83
2023/06/30 07:17:48;;;;;;;4.93;0.93;;;16.40;93.10;;;;;;5022432;28;20528;-83
2023/06/30 07:20:13;;;;;;;5.35;0.90;;;16.50;92.50;;;;;;5024455;28;20052;-83
2023/06/30 07:22:39;;;;;;;4.28;1.35;;;16.50;92.40;;;;;;5024777;28;20033;-83
2023/06/30 07:25:06;;;;;;;5.32;0.90;;;16.50;92.10;;;;;;5025363;28;20041;-82
2023/06/30 07:27:35;;;;;;;5.82;1.17;;;16.60;91.30;;;;;;5014089;28;20387;-83
2023/06/30 07:30:01;;;;;;;5.28;1.08;;;16.70;91.20;;;;;;4998159;28;20030;-83
2023/06/30 07:32:26;;;;;;;4.85;1.00;;;16.80;90.70;;;;;;4999352;28;20026;-83
2023/06/30 07:34:52;;;;;;;3.78;0.93;;;16.80;90.20;;;;;;5025100;28;20037;-83
2023/06/30 07:37:18;;;;;;;6.43;0.77;;;16.80;90.10;;;;;;5023458;28;20114;-83
2023/06/30 07:39:43;;;;;;;3.33;1.10;;;16.90;89.60;;;;;;5017445;28;20034;-82
2023/06/30 07:42:09;;;;;;;3.90;0.90;;;17.00;89.20;;;;;;5025424;28;20509;-83
2023/06/30 07:44:34;;;;;;;6.25;0.80;;;17.00;88.70;;;;;;5020621;28;20083;-83
2023/06/30 07:47:00;;;;;;;4.22;0.80;;;17.10;88.50;;;;;;5013281;28;20057;-82
2023/06/30 07:49:26;;;;;;;2.33;0.50;;;17.10;88.00;;;;;;5012635;28;20045;-83
2023/06/30 07:51:52;;;;;;;3.00;0.70;;;17.20;87.70;;;;;;4997769;28;20056;-82
2023/06/30 07:54:17;;;;;;;3.38;0.50;;;17.30;86.60;;;;;;5015240;28;20041;-82
2023/06/30 07:56:46;;;;;;;6.78;1.00;;;17.30;86.30;;;;;;5019695;28;20120;-82
2023/06/30 07:59:12;;;;;;;3.30;0.70;;;17.40;84.80;;;;;;5030151;28;20025;-81
2023/06/30 08:01:37;;;;;;;4.63;0.98;;;17.40;83.50;;;;;;5035003;28;20029;-82
2023/06/30 08:04:03;;;;;;;4.13;0.75;;;17.50;83.80;;;;;;5034640;28;20036;-83
2023/06/30 08:06:28;;;;;;;4.22;0.80;;;17.60;82.30;;;;;;5021248;28;20116;-82
2023/06/30 08:08:54;;;;;;;2.13;0.57;;;17.60;81.30;;;;;;5022405;28;20477;-82
2023/06/30 08:11:20;;;;;;;5.07;1.15;;;17.70;80.60;;;;;;5028053;28;20029;-82
2023/06/30 08:13:45;;;;;;;4.85;0.60;;;17.70;79.70;;;;;;5033777;28;20444;-82
2023/06/30 08:16:11;;;;;;;2.25;0.60;;;17.80;79.10;;;;;;5034819;28;20034;-83
2023/06/30 08:18:37;;;;;;;2.78;0.52;;;17.90;77.90;;;;;;5012578;28;20045;-82
2023/06/30 08:21:03;;;;;;;2.72;0.60;;;17.90;78.50;;;;;;5013056;28;20029;-82
2023/06/30 08:23:29;;;;;;;6.88;0.70;;;18.00;78.80;;;;;;5014029;28;20072;-82
2023/06/30 08:25:55;;;;;;;2.88;0.50;;;18.00;77.80;;;;;;4997057;28;20104;-82
2023/06/30 08:28:21;;;;;;;5.85;0.60;;;18.10;76.90;;;;;;5013198;28;20026;-82
2023/06/30 08:30:47;;;;;;;5.28;0.63;;;18.10;76.30;;;;;;5013712;28;20034;-75
2023/06/30 08:33:13;;;;;;;2.70;0.55;;;18.30;76.50;;;;;;4995816;28;20033;-75
2023/06/30 08:35:39;;;;;;;1.73;0.50;;;18.40;75.70;;;;;;5012446;28;20042;-75
2023/06/30 08:38:05;;;;;;;5.35;0.90;;;18.40;75.50;;;;;;5012470;28;20042;-76
2023/06/30 08:40:31;;;;;;;5.07;0.65;;;18.50;75.30;;;;;;5013585;28;20536;-75
2023/06/30 08:43:05;;;;;;;3.60;0.88;;;18.60;75.40;;;;;;5013628;28;20030;-74
2023/06/30 08:45:31;;;;;;;3.05;0.70;;;18.60;75.00;;;;;;5013518;28;20105;-76
2023/06/30 08:48:06;;;;;;;3.72;0.77;;;18.60;73.70;;;;;;5013405;28;20528;-76
2023/06/30 08:50:33;;;;;;;3.17;0.80;;;18.80;73.20;;;;;;5012536;28;20121;-76
2023/06/30 08:53:00;;;;;;;3.70;0.70;;;18.80;72.50;;;;;;4996083;28;20034;-75
2023/06/30 08:55:26;;;;;;;6.38;0.77;;;18.80;72.00;;;;;;5012299;28;20030;-75
2023/06/30 08:57:55;;;;;;;5.18;0.80;;;18.90;72.30;;;;;;5013588;28;20446;-81
2023/06/30 09:00:22;;;;;;;6.00;0.60;;;19.00;71.90;;;;;;5013719;28;20054;-82
2023/06/30 09:02:48;;;;;;;3.25;0.73;;;19.10;70.80;;;;;;5000952;28;20029;-82
2023/06/30 09:05:15;;;;;;;3.88;0.82;;;19.20;70.10;;;;;;5017772;28;20386;-82
2023/06/30 09:07:57;;;;;;;3.63;0.50;;;19.30;69.10;;;;;;5016658;28;20121;-82
2023/06/30 09:10:33;;;;;;;1.83;0.38;;;19.40;69.10;;;;;;5017921;28;20034;-81
2023/06/30 09:13:00;;;;;;;4.60;1.02;;;19.50;69.10;;;;;;5000402;28;20095;-82
2023/06/30 09:15:26;;;;;;;4.03;0.77;;;19.60;69.30;;;;;;5017694;28;20105;-82
2023/06/30 09:17:55;;;;;;;2.83;0.68;;;19.70;68.90;;;;;;5017527;28;20390;-81
2023/06/30 09:20:21;;;;;;;1.40;0.50;;;19.80;68.20;;;;;;5017884;28;20037;-82
2023/06/30 09:22:47;;;;;;;4.50;0.68;;;19.90;67.30;;;;;;5001520;28;20088;-81
2023/06/30 09:25:25;;;;;;;5.03;0.50;;;20.00;67.30;;;;;;5017969;28;20038;-82
2023/06/30 09:27:51;;;;;;;3.38;0.70;;;20.10;66.00;;;;;;5016179;28;20030;-83
2023/06/30 09:30:16;;;;;;;3.42;0.73;;;20.20;65.70;;;;;;5016262;28;20030;-81
2023/06/30 09:32:42;;;;;;;2.72;0.63;;;20.30;66.20;;;;;;5017325;28;20034;-83
2023/06/30 09:35:09;;;;;;;5.97;0.95;;;20.50;66.30;;;;;;5017751;28;20030;-82
2023/06/30 09:37:44;;;;;;;6.10;0.70;;;20.60;66.40;;;;;;5016784;28;20428;-83
2023/06/30 09:40:23;;;;;;;3.42;0.60;;;20.80;66.10;;;;;;5017262;28;20418;-82
2023/06/30 09:42:55;;;;;;;4.07;0.77;;;20.90;65.70;;;;;;5016705;28;20025;-82
2023/06/30 09:45:21;;;;;;;4.80;0.75;;;20.90;65.20;;;;;;5016170;28;20014;-82
2023/06/30 09:47:53;;;;;;;6.07;0.90;;;21.00;64.70;;;;;;5016908;28;20112;-80
2023/06/30 09:50:27;;;;;;;3.05;0.60;;;21.10;64.40;;;;;;5016865;28;20030;-83
2023/06/30 09:52:53;;;;;;;;;;;21.20;65.00;;;;;;5015744;28;20363;-82
2023/06/30 09:55:19;;;;;;;3.88;0.95;;;21.20;64.40;;;;;;5017554;28;20008;-80
2023/06/30 09:57:46;;;;;;;4.35;0.68;;;21.30;63.70;;;;;;5017836;28;20458;-82
2023/06/30 10:00:16;;;;;;;3.25;0.65;;;21.30;63.60;;;;;;5016732;28;20077;-82
2023/06/30 10:02:43;;;;;;;2.75;0.65;;;21.40;63.20;;;;;;5016028;28;20022;-83
2023/06/30 10:05:09;;;;;;;3.83;0.70;;;21.50;63.00;;;;;;5016273;28;20033;-83
2023/06/30 10:07:36;;;;;;;3.80;0.70;;;21.60;63.10;;;;;;5016349;28;20029;-83
2023/06/30 10:10:02;;;;;;;5.20;1.08;;;21.70;62.80;;;;;;5014991;28;20494;-82
2023/06/30 10:12:33;;;;;;;2.42;0.60;;;21.90;62.00;;;;;;5015533;28;20389;-82
2023/06/30 10:15:00;;;;;;;3.83;0.73;;;22.00;62.00;;;;;;5000153;28;20069;-82
2023/06/30 10:17:27;;;;;;;9.90;1.00;;;22.00;62.10;;;;;;5014993;28;20037;-78
2023/06/30 10:19:53;;;;;;;3.03;0.80;;;22.10;61.10;;;;;;5015981;28;20124;-76
2023/06/30 10:22:19;;;;;;;2.90;0.70;;;22.20;60.90;;;;;;5016204;28;20053;-77
2023/06/30 10:24:47;;;;;;;3.78;0.80;;;22.20;60.40;;;;;;5016014;28;20022;-76
2023/06/30 10:27:18;;;;;;;4.93;0.82;;;22.20;60.40;;;;;;5014677;28;20152;-76
2023/06/30 10:29:45;;;;;;;3.10;0.77;;;22.30;60.00;;;;;;5014686;28;20130;-76
2023/06/30 10:32:11;;;;;;;8.65;1.05;;;22.30;60.00;;;;;;5015781;28;20084;-76
2023/06/30 10:34:38;;;;;;;3.00;1.00;;;22.30;60.00;;;;;;5015814;28;20026;-76
2023/06/30 10:37:04;;;;;;;4.97;0.60;;;22.30;59.90;;;;;;5014625;28;20038;-76
2023/06/30 10:39:30;;;;;;;3.78;0.95;;;22.40;59.80;;;;;;4998089;28;20081;-76
2023/06/30 10:41:59;;;;;;;2.95;0.60;;;22.40;59.40;;;;;;5014364;28;20030;-76
2023/06/30 10:44:38;;;;;;;2.95;0.60;;;22.50;59.50;;;;;;5017995;28;20049;-76
2023/06/30 10:47:04;;;;;;;4.55;0.60;;;22.50;59.00;;;;;;5014418;28;20061;-76
2023/06/30 10:49:32;;;;;;;3.85;0.60;;;22.50;58.90;;;;;;5016392;28;20531;-76
2023/06/30 10:52:00;;;;;;;4.57;0.82;;;22.50;58.40;;;;;;5012337;28;20037;-76
2023/06/30 10:54:36;;;;;;;5.35;0.90;;;22.50;58.30;;;;;;5013429;28;20022;-76
2023/06/30 10:57:08;;;;;;;3.10;0.82;;;22.60;58.50;;;;;;5013910;28;20033;-76
2023/06/30 10:59:41;;;;;;;3.58;0.80;;;22.70;58.50;;;;;;5020712;28;20018;-77
2023/06/30 11:02:19;;;;;;;2.77;0.70;;;22.80;58.00;;;;;;5015207;28;20033;-78
2023/06/30 11:04:46;;;;;;;3.58;0.90;;;22.90;58.40;;;;;;5008653;28;20030;-76
2023/06/30 11:07:18;;;;;;;4.45;0.55;;;22.90;58.50;;;;;;5012554;28;20112;-75
2023/06/30 11:09:49;;;;;;;2.45;0.57;;;22.90;58.40;;;;;;5013425;28;20124;-75
2023/06/30 11:12:20;;;;;;;4.28;0.70;;;23.00;58.40;;;;;;5013832;28;20041;-78
2023/06/30 11:15:03;;;;;;;4.55;1.00;;;23.20;58.40;;;;;;4997277;28;20029;-76
2023/06/30 11:17:50;;;;;;;2.83;0.52;;;23.40;58.10;;;;;;5013550;28;20482;-78
2023/06/30 11:20:17;;;;;;;3.50;0.70;;;23.60;57.80;;;;;;5013363;28;20026;-76
2023/06/30 11:23:01;;;;;;;2.30;0.50;;;23.70;57.90;;;;;;5013668;28;20033;-78
2023/06/30 11:25:29;;;;;;;3.92;0.68;;;23.80;57.60;;;;;;5014838;28;20022;-76
2023/06/30 11:27:56;;;;;;;5.22;0.88;;;23.80;57.60;;;;;;5015286;28;20041;-77
2023/06/30 11:30:22;;;;;;;2.33;0.70;;;24.00;57.30;;;;;;5013625;28;20025;-76
2023/06/30 11:32:53;;;;;;;3.00;0.70;;;24.10;57.10;;;;;;5014829;28;20026;-78
2023/06/30 11:35:18;;;;;;;3.20;0.93;;;24.30;56.50;;;;;;5014697;28;20496;-78
2023/06/30 11:37:48;;;;;;;2.83;0.70;;;24.40;56.30;;;;;;5013867;28;20033;-78
2023/06/30 11:40:14;;;;;;;3.05;0.57;;;24.40;55.80;;;;;;5014760;28;20382;-76
2023/06/30 11:42:40;;;;;;;3.85;0.80;;;24.50;55.80;;;;;;5013233;28;20017;-76
2023/06/30 11:45:07;;;;;;;2.20;0.70;;;24.70;55.70;;;;;;5013461;28;20033;-76
2023/06/30 11:47:35;;;;;;;3.53;0.60;;;24.70;55.20;;;;;;5013242;28;20064;-76
2023/06/30 11:50:08;;;;;;;3.60;0.95;;;24.80;55.40;;;;;;5011623;28;20026;-78
2023/06/30 11:52:35;;;;;;;3.30;0.70;;;24.80;55.30;;;;;;5010127;28;20034;-76
2023/06/30 11:55:12;;;;;;;3.88;0.80;;;25.00;55.30;;;;;;4993154;28;20093;-76
2023/06/30 11:57:40;;;;;;;3.20;0.80;;;25.20;55.00;;;;;;4994486;28;20030;-76
2023/06/30 12:00:11;;;;;;;3.15;0.70;;;25.40;55.00;;;;;;4994611;28;20417;-76
2023/06/30 12:02:37;;;;;;;2.85;0.70;;;25.60;54.90;;;;;;4993259;28;20027;-77
2023/06/30 12:05:11;;;;;;;2.08;0.57;;;25.80;54.80;;;;;;4994540;28;20463;-76
2023/06/30 12:07:37;;;;;;;2.47;0.80;;;26.10;54.20;;;;;;5006334;28;20124;-76
2023/06/30 12:10:03;;;;;;;5.53;0.80;;;26.30;54.00;;;;;;5012799;28;20113;-78
2023/06/30 12:12:29;;;;;;;3.17;0.70;;;26.50;53.00;;;;;;4996508;28;20026;-76
2023/06/30 12:14:56;;;;;;;2.55;0.80;;;26.60;52.50;;;;;;5012795;28;20025;-78
2023/06/30 12:17:26;;;;;;;3.70;0.80;;;26.70;52.10;;;;;;4996211;28;20038;-77
2023/06/30 12:19:52;;;;;;;4.50;0.88;;;26.70;51.80;;;;;;5021787;28;20466;-76
2023/06/30 12:22:27;;;;;;;2.65;0.60;;;26.70;51.80;;;;;;4999483;28;20029;-76
2023/06/30 12:24:58;;;;;;;2.03;0.57;;;26.70;51.60;;;;;;5032547;28;20029;-76
2023/06/30 12:27:27;;;;;;;2.92;0.77;;;26.80;51.40;;;;;;5033500;28;20063;-77
2023/06/30 12:29:56;;;;;;;4.50;1.20;;;26.80;51.10;;;;;;5031217;28;20026;-79
2023/06/30 12:32:27;;;;;;;3.03;0.80;;;26.90;51.20;;;;;;5009108;28;20116;-76
2023/06/30 12:35:04;;;;;;;3.58;0.80;;;27.00;50.70;;;;;;5000851;28;20041;-77
2023/06/30 12:37:29;;;;;;;3.70;0.75;;;27.10;50.50;;;;;;4993739;28;20077;-77
2023/06/30 12:39:57;;;;;;;3.38;0.60;;;27.20;50.40;;;;;;4975983;28;20432;-77
2023/06/30 12:42:24;;;;;;;3.15;0.70;;;27.30;50.30;;;;;;4976393;28;20034;-76
2023/06/30 12:44:49;;;;;;;2.70;0.60;;;27.30;50.10;;;;;;4992649;28;20042;-76
2023/06/30 12:47:15;;;;;;;1.38;0.50;;;27.40;50.10;;;;;;4976275;28;20054;-77